Alyeska Resort
Max's Hourly Weather Roundup
ALYESKA_MAX 3/5/2015
Click Here for Graph

        DATE  TIME   Air  Wind  Wind  Wind  BATT   Rel
                    Temp   Spd   Dir  Gust  Volt  Hum%
                      F   MPH   AVG   MPH   AVG   AVG

    3/5/2015 22:00    28     5   140     8 12.95   100
    3/5/2015 21:00    29     5   128    10 12.99   100
    3/5/2015 20:00    29     3   145     7 13.04   100
    3/5/2015 19:00    29     3   142     6 13.18   100
    3/5/2015 18:00    30     2   130     6 13.58   100
    3/5/2015 17:00    31     2    90     4 13.79    99
    3/5/2015 16:00    32     3   131     6 13.73    96
    3/5/2015 15:00    32     4   121     8 13.71    96
    3/5/2015 14:00    33     2   125     6 13.68    92
    3/5/2015 13:00    34     1   194     2 13.66    85
    3/5/2015 12:00    32     1           3 13.67    91
    3/5/2015 11:00    31     2   162     5 13.74    95
    3/5/2015 10:00    30     6   124    10 13.90    98
    3/5/2015 09:00    29     7   113    13 13.01    98
    3/5/2015 08:00    28     5   108    14 12.79    99
    3/5/2015 07:00    28     2   118     6 12.79   100
    3/5/2015 06:00    29     4   101    12 12.80    98
    3/5/2015 05:00    29     3   127    10 12.82    99
    3/5/2015 04:00    29     4   124    11 12.83    97
    3/5/2015 03:00    29     3    78    10 12.84    99
    3/5/2015 02:00    29     5   132    11 12.86    98
    3/5/2015 01:00    30     6   118    12 12.88    98
    3/4/2015 24:00    29     3   114    12 12.90    99
    3/4/2015 23:00    29     2    92    10 12.92    99


Click Here for Graph